Trans Sea — 9HA2564 — position and weather

sailwx.info

Track history (hours):
 
Tides and Currents Weather Stations Pressure Air Temp Water Temp Dewpoint Dewpoint Depression Visibility Wind Speed Wind Dir Waves Ship Positions

Trans Sea

Last reported at 2016-Aug-25 13:34 UTC. Time now 2016-Aug-25 15:01 UTC.
Position N 36°37' W 009°28'.

Length 107 m; draft 5.3 m.

Type: Ship (hazmat cat B). MMSI: 248887000.

Date/timePositionNaut miles runAvg speedWind from/ knotsBaromVisibWave heightAir tempDewpointWater temp
2016-Aug-25 13:34N 36°37' W 009°28'1211.7
2016-Aug-25 12:34N 36°46' W 009°38'1312.4
2016-Aug-25 11:33N 36°58' W 009°42'1311.9
2016-Aug-25 10:28N 37°10' W 009°45'1112.5
2016-Aug-25 09:34N 37°21' W 009°48'1212.4
2016-Aug-25 08:33N 37°33' W 009°52'1212.4
2016-Aug-25 07:33N 37°45' W 009°55'1313.0
2016-Aug-25 06:32N 37°58' W 009°59'2613.1
2016-Aug-25 04:33N 38°24' W 010°07'1313.5
2016-Aug-25 03:33N 38°37' W 010°10'1412.8
2016-Aug-25 02:29N 38°50' W 010°12'1212.8
2016-Aug-25 01:33N 39°01' W 010°05'1413.6
2016-Aug-25 00:33N 39°13' W 009°56'1413.4
2016-Aug-24 23:29N 39°25' W 009°47'1212.9
2016-Aug-24 22:34N 39°36' W 009°40'1313.3
2016-Aug-24 21:33N 39°48' W 009°32'2713.2
2016-Aug-24 19:32N 40°10' W 009°14'1313.2
2016-Aug-24 18:33N 40°22' W 009°06'1313.1
2016-Aug-24 17:33N 40°34' W 008°58'1110.9
2016-Aug-24 16:33N 40°39' W 008°45'82 2.3
2016-Aug-23 04:33N 39°30' W 009°45'1211.8
2016-Aug-23 03:33N 39°19' W 009°47'1212.0
2016-Aug-23 02:33N 39°07' W 009°48'1212.4
2016-Aug-23 01:33N 38°54' W 009°50'1211.9
2016-Aug-23 00:33N 38°42' W 009°51'1111.1
2016-Aug-22 23:33N 38°31' W 009°48'1212.1
2016-Aug-22 22:33N 38°20' W 009°45'1211.6
2016-Aug-22 21:33N 38°08' W 009°43'1211.6
2016-Aug-22 20:33N 37°57' W 009°39'1111.4
2016-Aug-22 19:33N 37°46' W 009°36'1211.6
2016-Aug-22 18:33N 37°35' W 009°32'1211.7
2016-Aug-22 17:33N 37°23' W 009°29'19511.9
2016-Aug-22 01:12N 35°58' W 005°51'1114.5
2016-Aug-22 00:25N 35°58' W 005°37'1011.9
2016-Aug-21 23:34N 36°01' W 005°25'1110.8
2016-Aug-21 22:33N 36°05' W 005°12'22011.5
2016-Aug-21 03:31N 37°20' W 000°54'2812.6
2016-Aug-21 01:19N 37°39' W 000°30'5112.7
2016-Aug-20 21:18N 38°22' E 000°05'1012.8
2016-Aug-20 20:31N 38°30' E 000°12'1212.5
2016-Aug-20 19:31N 38°40' E 000°21'2912.6
2016-Aug-20 17:12N 39°07' E 000°37'5013.0
2016-Aug-20 13:22N 39°52' E 001°04'1112.9
2016-Aug-20 12:33N 40°03' E 001°06'1312.9
2016-Aug-20 11:33N 40°16' E 001°07'1312.9
2016-Aug-20 10:33N 40°29' E 001°09'1212.5
2016-Aug-20 09:33N 40°41' E 001°10'1312.4
2016-Aug-20 08:29N 40°54' E 001°11'31 1.3
2016-Aug-19 09:13N 41°05' E 001°49'812.4
2016-Aug-19 08:33N 41°05' E 002°00'1212.0
2016-Aug-19 07:33N 41°10' E 002°15'1312.0
2016-Aug-19 06:30N 41°18' E 002°28'1112.2
2016-Aug-19 05:33N 41°25' E 002°40'1212.1
2016-Aug-19 04:33N 41°32' E 002°54'1212.5
2016-Aug-19 03:33N 41°40' E 003°07'1212.2
2016-Aug-19 02:33N 41°47' E 003°20'9612.9
2016-Aug-18 19:05N 42°59' E 004°45'712.9
2016-Aug-18 18:33N 43°04' E 004°52'1211.8
2016-Aug-18 17:33N 43°14' E 005°00'1110.6
2016-Aug-18 16:33N 43°24' E 004°54'3 0.1
2016-Aug-16 17:33N 43°25' E 004°50'5 4.8
2016-Aug-16 16:33N 43°23' E 004°56'6011.6
2016-Aug-16 11:24N 42°51' E 006°05'1112.8
2016-Aug-16 10:31N 42°52' E 006°20'1212.6
2016-Aug-16 09:33N 42°53' E 006°37'1512.3
2016-Aug-16 08:21N 42°55' E 006°57'1011.9
2016-Aug-16 07:30N 42°56' E 007°11'3411.6
2016-Aug-16 04:33N 42°60' E 007°57'2911.7
2016-Aug-16 02:05N 43°03' E 008°37'612.1
2016-Aug-16 01:33N 43°04' E 008°45'1312.2
2016-Aug-16 00:30N 43°05' E 009°03'2211.2
2016-Aug-15 22:33N 43°03' E 009°32'4412.6
2016-Aug-15 19:05N 42°23' E 009°56'712.5
2016-Aug-15 18:33N 42°17' E 009°60'1312.7
2016-Aug-15 17:31N 42°06' E 010°10'1712.6
2016-Aug-15 16:09N 41°55' E 010°28'  
Track history (hours):
 
Tides and Currents Weather Stations Pressure Air Temp Water Temp Dewpoint Dewpoint Depression Visibility Wind Speed Wind Dir Waves Ship Positions

Trans Sea

Last reported at 2016-Aug-25 13:34 UTC. Time now 2016-Aug-25 15:01 UTC.
Position N 36°37' W 009°28'.

Length 107 m; draft 5.3 m.

Type: Ship (hazmat cat B). MMSI: 248887000.

Date/timePositionNaut miles runAvg speedWind from/ knotsBaromVisibWave heightAir tempDewpointWater temp
2016-Aug-25 13:34N 36°37' W 009°28'1211.7
2016-Aug-25 12:34N 36°46' W 009°38'1312.4
2016-Aug-25 11:33N 36°58' W 009°42'1311.9
2016-Aug-25 10:28N 37°10' W 009°45'1112.5
2016-Aug-25 09:34N 37°21' W 009°48'1212.4
2016-Aug-25 08:33N 37°33' W 009°52'1212.4
2016-Aug-25 07:33N 37°45' W 009°55'1313.0
2016-Aug-25 06:32N 37°58' W 009°59'2613.1
2016-Aug-25 04:33N 38°24' W 010°07'1313.5
2016-Aug-25 03:33N 38°37' W 010°10'1412.8
2016-Aug-25 02:29N 38°50' W 010°12'1212.8
2016-Aug-25 01:33N 39°01' W 010°05'1413.6
2016-Aug-25 00:33N 39°13' W 009°56'1413.4
2016-Aug-24 23:29N 39°25' W 009°47'1212.9
2016-Aug-24 22:34N 39°36' W 009°40'1313.3
2016-Aug-24 21:33N 39°48' W 009°32'2713.2
2016-Aug-24 19:32N 40°10' W 009°14'1313.2
2016-Aug-24 18:33N 40°22' W 009°06'1313.1
2016-Aug-24 17:33N 40°34' W 008°58'1110.9
2016-Aug-24 16:33N 40°39' W 008°45'82 2.3
2016-Aug-23 04:33N 39°30' W 009°45'1211.8
2016-Aug-23 03:33N 39°19' W 009°47'1212.0
2016-Aug-23 02:33N 39°07' W 009°48'1212.4
2016-Aug-23 01:33N 38°54' W 009°50'1211.9
2016-Aug-23 00:33N 38°42' W 009°51'1111.1
2016-Aug-22 23:33N 38°31' W 009°48'1212.1
2016-Aug-22 22:33N 38°20' W 009°45'1211.6
2016-Aug-22 21:33N 38°08' W 009°43'1211.6
2016-Aug-22 20:33N 37°57' W 009°39'1111.4
2016-Aug-22 19:33N 37°46' W 009°36'1211.6
2016-Aug-22 18:33N 37°35' W 009°32'1211.7
2016-Aug-22 17:33N 37°23' W 009°29'19511.9
2016-Aug-22 01:12N 35°58' W 005°51'1114.5
2016-Aug-22 00:25N 35°58' W 005°37'1011.9
2016-Aug-21 23:34N 36°01' W 005°25'1110.8
2016-Aug-21 22:33N 36°05' W 005°12'22011.5
2016-Aug-21 03:31N 37°20' W 000°54'2812.6
2016-Aug-21 01:19N 37°39' W 000°30'5112.7
2016-Aug-20 21:18N 38°22' E 000°05'1012.8
2016-Aug-20 20:31N 38°30' E 000°12'1212.5
2016-Aug-20 19:31N 38°40' E 000°21'2912.6
2016-Aug-20 17:12N 39°07' E 000°37'5013.0
2016-Aug-20 13:22N 39°52' E 001°04'1112.9
2016-Aug-20 12:33N 40°03' E 001°06'1312.9
2016-Aug-20 11:33N 40°16' E 001°07'1312.9
2016-Aug-20 10:33N 40°29' E 001°09'1212.5
2016-Aug-20 09:33N 40°41' E 001°10'1312.4
2016-Aug-20 08:29N 40°54' E 001°11'31 1.3
2016-Aug-19 09:13N 41°05' E 001°49'812.4
2016-Aug-19 08:33N 41°05' E 002°00'1212.0
2016-Aug-19 07:33N 41°10' E 002°15'1312.0
2016-Aug-19 06:30N 41°18' E 002°28'1112.2
2016-Aug-19 05:33N 41°25' E 002°40'1212.1
2016-Aug-19 04:33N 41°32' E 002°54'1212.5
2016-Aug-19 03:33N 41°40' E 003°07'1212.2
2016-Aug-19 02:33N 41°47' E 003°20'9612.9
2016-Aug-18 19:05N 42°59' E 004°45'712.9
2016-Aug-18 18:33N 43°04' E 004°52'1211.8
2016-Aug-18 17:33N 43°14' E 005°00'1110.6
2016-Aug-18 16:33N 43°24' E 004°54'3 0.1
2016-Aug-16 17:33N 43°25' E 004°50'5 4.8
2016-Aug-16 16:33N 43°23' E 004°56'6011.6
2016-Aug-16 11:24N 42°51' E 006°05'1112.8
2016-Aug-16 10:31N 42°52' E 006°20'1212.6
2016-Aug-16 09:33N 42°53' E 006°37'1512.3
2016-Aug-16 08:21N 42°55' E 006°57'1011.9
2016-Aug-16 07:30N 42°56' E 007°11'3411.6
2016-Aug-16 04:33N 42°60' E 007°57'2911.7
2016-Aug-16 02:05N 43°03' E 008°37'612.1
2016-Aug-16 01:33N 43°04' E 008°45'1312.2
2016-Aug-16 00:30N 43°05' E 009°03'2211.2
2016-Aug-15 22:33N 43°03' E 009°32'4412.6
2016-Aug-15 19:05N 42°23' E 009°56'712.5
2016-Aug-15 18:33N 42°17' E 009°60'1312.7
2016-Aug-15 17:31N 42°06' E 010°10'1712.6
2016-Aug-15 16:09N 41°55' E 010°28'  

Dump ship's entire track history